createdAt,value
2018-10-03T00:00:33.270Z,1009.50
2018-10-03T00:01:33.247Z,1009.44
2018-10-03T00:02:33.237Z,1009.44
2018-10-03T00:03:33.224Z,1009.48
2018-10-03T00:04:33.218Z,1009.47
2018-10-03T00:05:33.240Z,1009.51
2018-10-03T00:06:33.195Z,1009.52
2018-10-03T00:07:33.184Z,1009.55
2018-10-03T00:08:33.170Z,1009.54
2018-10-03T00:09:33.161Z,1009.54
2018-10-03T00:10:33.161Z,1009.51
2018-10-03T00:11:33.139Z,1009.53
2018-10-03T00:12:33.125Z,1009.55
2018-10-03T00:13:33.115Z,1009.50
2018-10-03T00:14:33.122Z,1009.45
2018-10-03T00:15:33.116Z,1009.46
2018-10-03T00:16:33.085Z,1009.48
2018-10-03T00:17:33.080Z,1009.45
2018-10-03T00:18:33.060Z,1009.52
2018-10-03T00:19:33.049Z,1009.51
2018-10-03T00:20:33.050Z,1009.54
2018-10-03T00:21:33.027Z,1009.53
2018-10-03T00:22:33.015Z,1009.50
2018-10-03T00:23:33.007Z,1009.51
2018-10-03T00:24:32.993Z,1009.53
2018-10-03T00:25:32.995Z,1009.56
2018-10-03T00:26:32.973Z,1009.57
2018-10-03T00:27:32.982Z,1009.53
2018-10-03T00:28:32.961Z,1009.60
2018-10-03T00:29:32.938Z,1009.58
2018-10-03T00:30:32.959Z,1009.60
2018-10-03T00:31:32.916Z,1009.62
2018-10-03T00:32:32.913Z,1009.57
2018-10-03T00:33:32.893Z,1009.61
2018-10-03T00:34:32.886Z,1009.60
2018-10-03T00:35:32.871Z,1009.58
2018-10-03T00:36:32.874Z,1009.53
2018-10-03T00:37:32.849Z,1009.54
2018-10-03T00:38:32.859Z,1009.55
2018-10-03T00:39:32.827Z,1009.57
2018-10-03T00:40:32.817Z,1009.55
2018-10-03T00:41:32.816Z,1009.56
2018-10-03T00:42:32.794Z,1009.54
2018-10-03T00:43:32.783Z,1009.50
2018-10-03T00:44:32.772Z,1009.60
2018-10-03T00:45:32.761Z,1009.51
2018-10-03T00:46:32.765Z,1009.54
2018-10-03T00:47:32.740Z,1009.57
2018-10-03T00:48:32.731Z,1009.57
2018-10-03T00:49:32.717Z,1009.60
2018-10-03T00:50:32.718Z,1009.55
2018-10-03T00:51:32.732Z,1009.55
2018-10-03T00:52:32.684Z,1009.63
2018-10-03T00:53:32.672Z,1009.60
2018-10-03T00:54:32.662Z,1009.65
2018-10-03T00:55:32.653Z,1009.56
2018-10-03T00:56:32.652Z,1009.57
2018-10-03T00:57:32.630Z,1009.56
2018-10-03T00:58:32.617Z,1009.51
2018-10-03T00:59:32.606Z,1009.52
2018-10-03T01:00:32.596Z,1009.51
2018-10-03T01:01:32.598Z,1009.57
2018-10-03T01:02:32.573Z,1009.61
2018-10-03T01:03:32.634Z,1009.62
2018-10-03T01:04:32.553Z,1009.66
2018-10-03T01:05:32.539Z,1009.69
2018-10-03T01:06:32.545Z,1009.75
2018-10-03T01:07:32.519Z,1009.79
2018-10-03T01:08:32.510Z,1009.74
2018-10-03T01:09:32.497Z,1009.74
2018-10-03T01:10:32.483Z,1009.73
2018-10-03T01:11:32.507Z,1009.74
2018-10-03T01:12:32.462Z,1009.65
2018-10-03T01:13:32.451Z,1009.69
2018-10-03T01:14:32.448Z,1009.69
2018-10-03T01:15:32.433Z,1009.74
2018-10-03T01:16:32.440Z,1009.75
2018-10-03T01:17:32.410Z,1009.70
2018-10-03T01:18:32.396Z,1009.69
2018-10-03T01:19:32.385Z,1009.73
2018-10-03T01:20:32.377Z,1009.77
2018-10-03T01:21:32.379Z,1009.74
2018-10-03T01:22:32.352Z,1009.77
2018-10-03T01:23:32.344Z,1009.74
2018-10-03T01:24:32.346Z,1009.73
2018-10-03T01:25:32.329Z,1009.84
2018-10-03T01:26:32.321Z,1009.80
2018-10-03T01:27:32.297Z,1009.84
2018-10-03T01:28:32.288Z,1009.86
2018-10-03T01:29:32.276Z,1009.88
2018-10-03T01:30:32.267Z,1009.86
2018-10-03T01:31:32.266Z,1009.84
2018-10-03T01:32:32.252Z,1009.84
2018-10-03T01:33:32.231Z,1009.83
2018-10-03T01:34:32.220Z,1009.80
2018-10-03T01:36:32.211Z,1009.85
2018-10-03T01:37:32.191Z,1009.85
2018-10-03T01:38:32.255Z,1009.87
2018-10-03T01:39:32.189Z,1009.91
2018-10-03T01:40:32.154Z,1009.91
2018-10-03T01:41:32.159Z,1009.88
2018-10-03T01:42:32.135Z,1009.84
2018-10-03T01:43:32.124Z,1009.86
2018-10-03T01:44:32.111Z,1009.89
2018-10-03T01:45:32.099Z,1009.85
2018-10-03T01:46:32.100Z,1009.85
2018-10-03T01:47:32.089Z,1009.83
2018-10-03T01:48:32.068Z,1009.86
2018-10-03T01:49:32.056Z,1009.87
2018-10-03T01:50:32.044Z,1009.93
2018-10-03T01:51:32.047Z,1009.96
2018-10-03T01:52:32.022Z,1010.00
2018-10-03T01:53:32.012Z,1009.98
2018-10-03T01:54:31.999Z,1009.97
2018-10-03T01:55:31.989Z,1009.99
2018-10-03T01:56:31.990Z,1009.94
2018-10-03T01:57:31.967Z,1009.90
2018-10-03T01:58:31.956Z,1009.99
2018-10-03T01:59:31.944Z,1009.94
2018-10-03T02:00:31.935Z,1009.98
2018-10-03T02:01:31.933Z,1009.97
2018-10-03T02:02:31.927Z,1010.03
2018-10-03T02:03:31.900Z,1010.07
2018-10-03T02:04:31.889Z,1010.03
2018-10-03T02:05:31.878Z,1010.07
2018-10-03T02:06:31.879Z,1010.08
2018-10-03T02:07:31.860Z,1010.09
2018-10-03T02:08:31.845Z,1010.07
2018-10-03T02:09:31.837Z,1010.07
2018-10-03T02:10:31.847Z,1010.03
2018-10-03T02:11:31.812Z,1010.06
2018-10-03T02:12:31.850Z,1010.09
2018-10-03T02:13:31.793Z,1010.03
2018-10-03T02:14:31.789Z,1010.00
2018-10-03T02:15:31.791Z,1009.99
2018-10-03T02:16:31.795Z,1010.05
2018-10-03T02:17:31.758Z,1010.02
2018-10-03T02:18:31.736Z,1010.00
2018-10-03T02:19:31.730Z,1010.05
2018-10-03T02:20:31.713Z,1010.11
2018-10-03T02:21:31.702Z,1010.04
2018-10-03T02:22:31.704Z,1010.15
2018-10-03T02:23:31.686Z,1010.14
2018-10-03T02:24:31.669Z,1010.16
2018-10-03T02:25:31.657Z,1010.19
2018-10-03T02:26:31.646Z,1010.16
2018-10-03T02:27:31.649Z,1010.20
2018-10-03T02:28:31.634Z,1010.19
2018-10-03T02:29:31.638Z,1010.22
2018-10-03T02:30:31.604Z,1010.21
2018-10-03T02:31:31.594Z,1010.23
2018-10-03T02:32:31.595Z,1010.22
2018-10-03T02:33:31.575Z,1010.19
2018-10-03T02:34:31.569Z,1010.25
2018-10-03T02:35:31.556Z,1010.15
2018-10-03T02:36:31.538Z,1010.13
2018-10-03T02:37:31.536Z,1010.11
2018-10-03T02:38:31.516Z,1010.10
2018-10-03T02:39:31.503Z,1010.10
2018-10-03T02:40:31.492Z,1010.11
2018-10-03T02:41:31.481Z,1010.08
2018-10-03T02:42:31.483Z,1010.14
2018-10-03T02:43:31.459Z,1010.13
2018-10-03T02:44:31.453Z,1010.16
2018-10-03T02:45:31.438Z,1010.10
2018-10-03T02:46:31.425Z,1010.08
2018-10-03T02:47:31.428Z,1010.09
2018-10-03T02:48:31.409Z,1010.12
2018-10-03T02:49:31.400Z,1010.14
2018-10-03T02:50:31.384Z,1010.07
2018-10-03T02:51:31.376Z,1010.08
2018-10-03T02:52:31.372Z,1010.11
2018-10-03T02:53:31.350Z,1010.10
2018-10-03T02:54:31.342Z,1010.06
2018-10-03T02:55:31.328Z,1010.06
2018-10-03T02:56:31.322Z,1010.01
2018-10-03T02:57:31.316Z,1010.11
2018-10-03T02:58:31.294Z,1010.03
2018-10-03T02:59:31.291Z,1010.12
2018-10-03T03:00:31.274Z,1010.08
2018-10-03T03:01:31.331Z,1010.09
2018-10-03T03:02:31.261Z,1010.11
2018-10-03T03:03:31.237Z,1010.08
2018-10-03T03:04:31.233Z,1010.11
2018-10-03T03:05:31.216Z,1010.08
2018-10-03T03:06:31.205Z,1010.10
2018-10-03T03:07:31.208Z,1010.12
2018-10-03T03:08:31.209Z,1010.13
2018-10-03T03:09:31.172Z,1010.14
2018-10-03T03:10:31.163Z,1010.12
2018-10-03T03:11:31.149Z,1010.16
2018-10-03T03:12:31.150Z,1010.18
2018-10-03T03:13:31.127Z,1010.23
2018-10-03T03:14:31.135Z,1010.21
2018-10-03T03:15:31.105Z,1010.23
2018-10-03T03:16:31.094Z,1010.29
2018-10-03T03:17:31.095Z,1010.25
2018-10-03T03:18:31.072Z,1010.24
2018-10-03T03:19:31.070Z,1010.20
2018-10-03T03:20:31.050Z,1010.26
2018-10-03T03:21:31.042Z,1010.25
2018-10-03T03:22:31.040Z,1010.27
2018-10-03T03:23:31.030Z,1010.29
2018-10-03T03:24:31.010Z,1010.29
2018-10-03T03:25:30.997Z,1010.32
2018-10-03T03:26:30.984Z,1010.31
2018-10-03T03:27:31.001Z,1010.32
2018-10-03T03:28:30.960Z,1010.29
2018-10-03T03:29:30.953Z,1010.28
2018-10-03T03:30:30.953Z,1010.27
2018-10-03T03:31:30.932Z,1010.20
2018-10-03T03:32:30.939Z,1010.27
2018-10-03T03:33:30.911Z,1010.27
2018-10-03T03:34:30.896Z,1010.25
2018-10-03T03:35:30.886Z,1010.27
2018-10-03T03:36:30.872Z,1010.32
2018-10-03T03:37:30.875Z,1010.30
2018-10-03T03:38:30.852Z,1010.28
2018-10-03T03:39:30.841Z,1010.34
2018-10-03T03:40:30.839Z,1010.25
2018-10-03T03:41:30.817Z,1010.35
2018-10-03T03:42:30.841Z,1010.39
2018-10-03T03:43:30.796Z,1010.39
2018-10-03T03:44:30.783Z,1010.40
2018-10-03T03:45:30.774Z,1010.40
2018-10-03T03:46:30.764Z,1010.41
2018-10-03T03:47:30.751Z,1010.39
2018-10-03T03:48:30.752Z,1010.37
2018-10-03T03:49:30.732Z,1010.41
2018-10-03T03:50:30.742Z,1010.44
2018-10-03T03:51:30.709Z,1010.50
2018-10-03T03:52:30.700Z,1010.49
2018-10-03T03:53:30.697Z,1010.49
2018-10-03T03:54:30.674Z,1010.54
2018-10-03T03:55:30.662Z,1010.55
2018-10-03T03:56:30.652Z,1010.51
2018-10-03T03:57:30.642Z,1010.50
2018-10-03T03:58:30.648Z,1010.57
2018-10-03T03:59:30.621Z,1010.58
2018-10-03T04:00:30.609Z,1010.60
2018-10-03T04:01:30.597Z,1010.62
2018-10-03T04:02:30.589Z,1010.59
2018-10-03T04:03:30.607Z,1010.60
2018-10-03T04:04:30.566Z,1010.56
2018-10-03T04:05:30.575Z,1010.56
2018-10-03T04:06:30.542Z,1010.55
2018-10-03T04:07:30.531Z,1010.50
2018-10-03T04:08:30.534Z,1010.56
2018-10-03T04:09:30.513Z,1010.48
2018-10-03T04:10:30.499Z,1010.51
2018-10-03T04:11:30.490Z,1010.47
2018-10-03T04:12:30.476Z,1010.50
2018-10-03T04:13:30.497Z,1010.54
2018-10-03T04:14:30.459Z,1010.54
2018-10-03T04:15:30.468Z,1010.59
2018-10-03T04:16:30.435Z,1010.58
2018-10-03T04:17:30.422Z,1010.57
2018-10-03T04:18:30.425Z,1010.58
2018-10-03T04:19:30.402Z,1010.63
2018-10-03T04:20:30.393Z,1010.68
2018-10-03T04:21:30.378Z,1010.72
2018-10-03T04:22:30.365Z,1010.68
2018-10-03T04:23:30.368Z,1010.69
2018-10-03T04:24:30.343Z,1010.67
2018-10-03T04:25:30.332Z,1010.68
2018-10-03T04:26:30.340Z,1010.74
2018-10-03T04:27:30.310Z,1010.83
2018-10-03T04:28:30.326Z,1010.82
2018-10-03T04:29:30.288Z,1010.86
2018-10-03T04:30:30.277Z,1010.93
2018-10-03T04:31:30.268Z,1010.90
2018-10-03T04:32:30.257Z,1010.91
2018-10-03T04:33:30.256Z,1010.97
2018-10-03T04:34:30.236Z,1010.99
2018-10-03T04:35:30.257Z,1010.96
2018-10-03T04:36:30.210Z,1010.96
2018-10-03T04:37:30.199Z,1010.94
2018-10-03T04:38:30.217Z,1010.89
2018-10-03T04:39:30.198Z,1010.94
2018-10-03T04:40:30.168Z,1011.03
2018-10-03T04:41:30.154Z,1011.00
2018-10-03T04:42:30.143Z,1011.08
2018-10-03T04:43:30.149Z,1011.00
2018-10-03T04:44:30.133Z,1011.01
2018-10-03T04:45:30.115Z,1010.97
2018-10-03T04:46:30.111Z,1011.00
2018-10-03T04:47:30.089Z,1011.03
2018-10-03T04:48:30.092Z,1011.04
2018-10-03T04:49:30.069Z,1011.03
2018-10-03T04:50:30.055Z,1011.02
2018-10-03T04:51:30.065Z,1011.00
2018-10-03T04:52:30.035Z,1011.03
2018-10-03T04:53:30.034Z,1011.15
2018-10-03T04:54:30.013Z,1011.06
2018-10-03T04:55:30.001Z,1011.05
2018-10-03T04:56:29.993Z,1011.05
2018-10-03T04:57:29.978Z,1011.11
2018-10-03T04:58:29.982Z,1011.13
2018-10-03T04:59:29.956Z,1011.17
2018-10-03T05:00:29.944Z,1011.20
2018-10-03T05:01:29.957Z,1011.14
2018-10-03T05:02:29.941Z,1011.12
2018-10-03T05:03:29.923Z,1011.08
2018-10-03T05:04:29.900Z,1011.07
2018-10-03T05:05:29.900Z,1011.12
2018-10-03T05:06:29.882Z,1011.07
2018-10-03T05:07:29.866Z,1011.09
2018-10-03T05:08:29.868Z,1011.13
2018-10-03T05:09:29.847Z,1011.13
2018-10-03T05:10:29.837Z,1011.17
2018-10-03T05:11:29.948Z,1011.14
2018-10-03T05:12:29.812Z,1011.16
2018-10-03T05:13:29.815Z,1011.18
2018-10-03T05:14:29.794Z,1011.22
2018-10-03T05:15:29.799Z,1011.18
2018-10-03T05:16:30.211Z,1011.22
2018-10-03T05:17:29.756Z,1011.23
2018-10-03T05:18:29.749Z,1011.22
2018-10-03T05:19:29.749Z,1011.27
2018-10-03T05:20:29.723Z,1011.29
2018-10-03T05:21:29.713Z,1011.31
2018-10-03T05:22:29.699Z,1011.30
2018-10-03T05:23:29.689Z,1011.31
2018-10-03T05:24:29.705Z,1011.35
2018-10-03T05:25:29.676Z,1011.42
2018-10-03T05:26:29.659Z,1011.40
2018-10-03T05:27:29.647Z,1011.42
2018-10-03T05:28:29.639Z,1011.37
2018-10-03T05:29:29.637Z,1011.40
2018-10-03T05:30:29.613Z,1011.39
2018-10-03T05:31:29.603Z,1011.44
2018-10-03T05:32:29.595Z,1011.41
2018-10-03T05:33:29.581Z,1011.47
2018-10-03T05:34:29.589Z,1011.40
2018-10-03T05:35:29.557Z,1011.47
2018-10-03T05:36:29.549Z,1011.49
2018-10-03T05:37:29.543Z,1011.43
2018-10-03T05:38:29.541Z,1011.50
2018-10-03T05:39:29.541Z,1011.53
2018-10-03T05:40:29.503Z,1011.60
2018-10-03T05:41:29.491Z,1011.57
2018-10-03T05:42:29.481Z,1011.58
2018-10-03T05:43:29.478Z,1011.60
2018-10-03T05:44:29.471Z,1011.56
2018-10-03T05:45:29.447Z,1011.62
2018-10-03T05:46:29.628Z,1011.57
2018-10-03T05:47:29.449Z,1011.60
2018-10-03T05:48:29.568Z,1011.64
2018-10-03T05:49:29.418Z,1011.64
2018-10-03T05:50:29.395Z,1011.68
2018-10-03T05:51:29.390Z,1011.69
2018-10-03T05:52:29.368Z,1011.67
2018-10-03T05:53:29.359Z,1011.67
2018-10-03T05:54:29.372Z,1011.68
2018-10-03T05:55:29.339Z,1011.73
2018-10-03T05:56:29.324Z,1011.77
2018-10-03T05:57:29.313Z,1011.81
2018-10-03T05:58:29.303Z,1011.77
2018-10-03T05:59:29.305Z,1011.80
2018-10-03T06:00:29.306Z,1011.76
2018-10-03T06:01:29.273Z,1011.82
2018-10-03T06:02:29.258Z,1011.87
2018-10-03T06:03:29.250Z,1011.92
2018-10-03T06:04:29.253Z,1011.88
2018-10-03T06:05:29.231Z,1011.92
2018-10-03T06:06:29.215Z,1011.95
2018-10-03T06:07:29.203Z,1011.96
2018-10-03T06:08:29.191Z,1011.95
2018-10-03T06:09:29.195Z,1012.03
2018-10-03T06:10:29.169Z,1012.00
2018-10-03T06:11:29.164Z,1011.95
2018-10-03T06:12:29.150Z,1011.96
2018-10-03T06:13:29.136Z,1012.00
2018-10-03T06:14:29.136Z,1012.06
2018-10-03T06:15:29.114Z,1012.07
2018-10-03T06:16:29.106Z,1012.11
2018-10-03T06:17:29.090Z,1012.15
2018-10-03T06:18:29.124Z,1012.16
2018-10-03T06:19:29.082Z,1012.13
2018-10-03T06:20:29.059Z,1012.19
2018-10-03T06:21:29.047Z,1012.16
2018-10-03T06:22:29.035Z,1012.33
2018-10-03T06:23:29.034Z,1012.35
2018-10-03T06:24:29.025Z,1012.34
2018-10-03T06:25:29.016Z,1012.32
2018-10-03T06:26:28.992Z,1012.42
2018-10-03T06:27:28.980Z,1012.41
2018-10-03T06:28:29.802Z,1012.45
2018-10-03T06:29:28.971Z,1012.49
2018-10-03T06:30:28.952Z,1012.43
2018-10-03T06:31:28.942Z,1012.50
2018-10-03T06:32:28.925Z,1012.57
2018-10-03T06:33:28.928Z,1012.58
2018-10-03T06:34:28.915Z,1012.65
2018-10-03T06:35:28.893Z,1012.64
2018-10-03T06:36:28.883Z,1012.61
2018-10-03T06:37:28.873Z,1012.64
2018-10-03T06:38:28.859Z,1012.69
2018-10-03T06:39:28.942Z,1012.66
2018-10-03T06:40:28.873Z,1012.61
2018-10-03T06:41:28.853Z,1012.66
2018-10-03T06:42:28.819Z,1012.68
2018-10-03T06:43:28.988Z,1012.69
2018-10-03T06:44:28.817Z,1012.70
2018-10-03T06:45:28.820Z,1012.73
2018-10-03T06:46:28.781Z,1012.72
2018-10-03T06:47:28.762Z,1012.86
2018-10-03T06:48:28.751Z,1012.84
2018-10-03T06:49:28.738Z,1012.82
2018-10-03T06:50:28.741Z,1012.84
2018-10-03T06:51:28.721Z,1012.89
2018-10-03T06:52:28.702Z,1012.91
2018-10-03T06:53:28.693Z,1012.92
2018-10-03T06:54:28.682Z,1012.91
2018-10-03T06:55:28.684Z,1012.96
2018-10-03T06:56:28.661Z,1012.94
2018-10-03T06:57:28.650Z,1012.92
2018-10-03T06:58:28.636Z,1012.98
2018-10-03T06:59:28.625Z,1013.01
2018-10-03T07:00:28.628Z,1013.02
2018-10-03T07:01:28.612Z,1013.02
2018-10-03T07:02:28.592Z,1013.10
2018-10-03T07:03:28.584Z,1013.10
2018-10-03T07:04:28.608Z,1013.08
2018-10-03T07:05:28.582Z,1013.06
2018-10-03T07:06:28.850Z,1013.16
2018-10-03T07:07:28.571Z,1013.12
2018-10-03T07:08:28.526Z,1013.15
2018-10-03T07:09:28.544Z,1013.16
2018-10-03T07:10:28.515Z,1013.20
2018-10-03T07:11:28.492Z,1013.20
2018-10-03T07:12:28.482Z,1013.23
2018-10-03T07:13:28.470Z,1013.24
2018-10-03T07:14:28.481Z,1013.28
2018-10-03T07:15:28.461Z,1013.32
2018-10-03T07:16:28.437Z,1013.30
2018-10-03T07:17:28.426Z,1013.32
2018-10-03T07:18:28.419Z,1013.33
2018-10-03T07:19:28.426Z,1013.33
2018-10-03T07:20:28.406Z,1013.34
2018-10-03T07:21:28.401Z,1013.35
2018-10-03T07:22:28.373Z,1013.33
2018-10-03T07:23:28.362Z,1013.32
2018-10-03T07:24:28.352Z,1013.38
2018-10-03T07:25:28.351Z,1013.37
2018-10-03T07:26:28.329Z,1013.42
2018-10-03T07:27:28.352Z,1013.44
2018-10-03T07:28:28.333Z,1013.40
2018-10-03T07:29:28.294Z,1013.48
2018-10-03T07:30:28.304Z,1013.49
2018-10-03T07:31:28.921Z,1013.51
2018-10-03T07:32:28.458Z,1013.59
2018-10-03T07:33:28.675Z,1013.56
2018-10-03T07:34:28.527Z,1013.55
2018-10-03T07:35:28.243Z,1013.52
2018-10-03T07:36:28.223Z,1013.63
2018-10-03T07:37:28.205Z,1013.64
2018-10-03T07:38:28.195Z,1013.65
2018-10-03T07:39:28.213Z,1013.66
2018-10-03T07:40:28.226Z,1013.65
2018-10-03T07:41:28.163Z,1013.60
2018-10-03T07:42:28.173Z,1013.62
2018-10-03T07:43:28.228Z,1013.57
2018-10-03T07:44:28.131Z,1013.61
2018-10-03T07:45:28.134Z,1013.70
2018-10-03T07:46:28.106Z,1013.73
2018-10-03T07:47:28.100Z,1013.68
2018-10-03T07:48:28.090Z,1013.72
2018-10-03T07:49:28.073Z,1013.72
2018-10-03T07:50:28.132Z,1013.74
2018-10-03T07:51:28.051Z,1013.79
2018-10-03T07:52:28.042Z,1013.77
2018-10-03T07:53:28.130Z,1013.85
2018-10-03T07:54:28.062Z,1013.85
2018-10-03T07:55:28.047Z,1013.89
2018-10-03T07:56:28.000Z,1013.86
2018-10-03T07:57:27.990Z,1013.92
2018-10-03T07:58:27.979Z,1013.97
2018-10-03T07:59:27.964Z,1013.92
2018-10-03T08:00:27.970Z,1013.90
2018-10-03T08:01:27.962Z,1013.99
2018-10-03T08:02:27.932Z,1014.05
2018-10-03T08:03:27.926Z,1014.04
2018-10-03T08:04:27.924Z,1014.03
2018-10-03T08:05:27.929Z,1014.09
2018-10-03T08:06:27.895Z,1014.12
2018-10-03T08:07:27.883Z,1014.14
2018-10-03T08:08:27.876Z,1014.17
2018-10-03T08:09:27.864Z,1014.19
2018-10-03T08:10:27.849Z,1014.15
2018-10-03T08:11:27.884Z,1014.09
2018-10-03T08:12:27.821Z,1014.11
2018-10-03T08:13:27.810Z,1014.08
2018-10-03T08:14:27.798Z,1014.03
2018-10-03T08:15:27.839Z,1014.10
2018-10-03T08:16:27.818Z,1014.16
2018-10-03T08:17:27.779Z,1014.16
2018-10-03T08:18:27.768Z,1014.12
2018-10-03T08:19:27.743Z,1014.15
2018-10-03T08:20:27.737Z,1014.24
2018-10-03T08:21:27.792Z,1014.23
2018-10-03T08:22:27.712Z,1014.25
2018-10-03T08:23:27.715Z,1014.25
2018-10-03T08:24:27.696Z,1014.26
2018-10-03T08:25:27.784Z,1014.22
2018-10-03T08:26:27.681Z,1014.30
2018-10-03T08:27:27.656Z,1014.23
2018-10-03T08:28:27.663Z,1014.31
2018-10-03T08:29:27.634Z,1014.30
2018-10-03T08:30:27.623Z,1014.32
2018-10-03T08:31:27.623Z,1014.32
2018-10-03T08:32:27.683Z,1014.29
2018-10-03T08:33:27.593Z,1014.40
2018-10-03T08:34:27.580Z,1014.41
2018-10-03T08:35:27.572Z,1014.40
2018-10-03T08:36:27.570Z,1014.40
2018-10-03T08:37:27.548Z,1014.48
2018-10-03T08:38:27.597Z,1014.43
2018-10-03T08:39:27.528Z,1014.49
2018-10-03T08:40:27.515Z,1014.50
2018-10-03T08:41:27.580Z,1014.51
2018-10-03T08:42:27.512Z,1014.48
2018-10-03T08:43:27.492Z,1014.48
2018-10-03T08:44:27.472Z,1014.57
2018-10-03T08:45:27.492Z,1014.44
2018-10-03T08:46:27.462Z,1014.47
2018-10-03T08:47:27.450Z,1014.49
2018-10-03T08:48:27.429Z,1014.50
2018-10-03T08:49:27.420Z,1014.51
2018-10-03T08:50:27.408Z,1014.58
2018-10-03T08:51:27.434Z,1014.57
2018-10-03T08:52:27.386Z,1014.59
2018-10-03T08:53:27.379Z,1014.58
2018-10-03T08:54:27.365Z,1014.54
2018-10-03T08:55:27.358Z,1014.57
2018-10-03T08:56:27.371Z,1014.61
2018-10-03T08:57:27.333Z,1014.57
2018-10-03T08:58:27.508Z,1014.63
2018-10-03T08:59:27.315Z,1014.66
2018-10-03T09:00:27.304Z,1014.73
2018-10-03T09:01:27.292Z,1014.79
2018-10-03T09:02:27.291Z,1014.81
2018-10-03T09:03:27.269Z,1014.81
2018-10-03T09:04:27.260Z,1014.88
2018-10-03T09:05:27.270Z,1014.79
2018-10-03T09:06:27.242Z,1014.93
2018-10-03T09:07:27.239Z,1014.85
2018-10-03T09:08:27.215Z,1014.78
2018-10-03T09:09:27.206Z,1014.77
2018-10-03T09:10:27.195Z,1014.83
2018-10-03T09:11:27.223Z,1014.83
2018-10-03T09:12:27.200Z,1014.85
2018-10-03T09:13:27.182Z,1014.84
2018-10-03T09:14:27.159Z,1014.91
2018-10-03T09:15:27.142Z,1014.92
2018-10-03T09:16:27.131Z,1014.90
2018-10-03T09:17:27.133Z,1014.89
2018-10-03T09:18:27.113Z,1014.93
2018-10-03T09:19:27.102Z,1014.91
2018-10-03T09:20:27.109Z,1014.95
2018-10-03T09:21:27.181Z,1014.90
2018-10-03T09:22:27.082Z,1014.95
2018-10-03T09:23:27.058Z,1014.91
2018-10-03T09:24:27.066Z,1014.99
2018-10-03T09:25:27.037Z,1014.99
2018-10-03T09:26:27.036Z,1015.01
2018-10-03T09:27:27.024Z,1015.06
2018-10-03T09:28:27.074Z,1015.07
2018-10-03T09:29:26.991Z,1015.10
2018-10-03T09:30:26.980Z,1015.06
2018-10-03T09:31:26.972Z,1015.05
2018-10-03T09:32:26.970Z,1015.09
2018-10-03T09:33:26.952Z,1015.11
2018-10-03T09:34:26.940Z,1015.09
2018-10-03T09:35:26.931Z,1015.17
2018-10-03T09:36:26.917Z,1015.14
2018-10-03T09:37:26.923Z,1015.17
2018-10-03T09:38:26.895Z,1015.20
2018-10-03T09:39:26.944Z,1015.17
2018-10-03T09:40:26.872Z,1015.16
2018-10-03T09:41:26.885Z,1015.17
2018-10-03T09:42:26.869Z,1015.19
2018-10-03T09:43:26.839Z,1015.16
2018-10-03T09:44:26.857Z,1015.16
2018-10-03T09:45:26.818Z,1015.15
2018-10-03T09:46:33.820Z,1015.16
2018-10-03T09:47:26.820Z,1015.20
2018-10-03T09:48:26.793Z,1015.16
2018-10-03T09:49:26.772Z,1015.16
2018-10-03T09:50:26.762Z,1015.16
2018-10-03T09:51:26.750Z,1015.15
2018-10-03T09:52:26.752Z,1015.20
2018-10-03T09:53:26.734Z,1015.19
2018-10-03T09:54:26.740Z,1015.24
2018-10-03T09:55:26.709Z,1015.25
2018-10-03T09:56:26.698Z,1015.28
2018-10-03T09:57:26.698Z,1015.27
2018-10-03T09:58:26.677Z,1015.29
2018-10-03T09:59:26.665Z,1015.32
2018-10-03T10:00:26.719Z,1015.37
2018-10-03T10:01:26.681Z,1015.34
2018-10-03T10:02:26.677Z,1015.34
2018-10-03T10:03:26.624Z,1015.38
2018-10-03T10:04:26.614Z,1015.45
2018-10-03T10:05:26.599Z,1015.42
2018-10-03T10:06:26.587Z,1015.52
2018-10-03T10:07:27.287Z,1015.58
2018-10-03T10:08:27.208Z,1015.49
2018-10-03T10:09:26.569Z,1015.53
2018-10-03T10:10:30.519Z,1015.60
2018-10-03T10:11:26.662Z,1015.62
2018-10-03T10:12:26.584Z,1015.61
2018-10-03T10:13:26.511Z,1015.62
2018-10-03T10:14:26.809Z,1015.67
2018-10-03T10:15:26.487Z,1015.69
2018-10-03T10:16:26.475Z,1015.74
2018-10-03T10:17:26.500Z,1015.74
2018-10-03T10:18:26.453Z,1015.73
2018-10-03T10:19:26.448Z,1015.69
2018-10-03T10:20:26.429Z,1015.70
2018-10-03T10:21:26.418Z,1015.67
2018-10-03T10:22:26.447Z,1015.72
2018-10-03T10:23:26.492Z,1015.62
2018-10-03T10:24:26.389Z,1015.65
2018-10-03T10:25:26.428Z,1015.65
2018-10-03T10:26:26.373Z,1015.68
2018-10-03T10:27:26.352Z,1015.65
2018-10-03T10:28:26.354Z,1015.63
2018-10-03T10:29:26.329Z,1015.58
2018-10-03T10:30:26.473Z,1015.55
2018-10-03T10:31:26.310Z,1015.63
2018-10-03T10:32:26.496Z,1015.62
2018-10-03T10:33:26.318Z,1015.63
2018-10-03T10:34:26.288Z,1015.67
2018-10-03T10:35:26.272Z,1015.65
2018-10-03T10:36:26.252Z,1015.72
2018-10-03T10:37:26.263Z,1015.68
2018-10-03T10:38:26.241Z,1015.64
2018-10-03T10:39:26.219Z,1015.67
2018-10-03T10:40:26.403Z,1015.70
2018-10-03T10:41:26.431Z,1015.72
2018-10-03T10:42:26.187Z,1015.68
2018-10-03T10:43:26.285Z,1015.64
2018-10-03T10:44:26.179Z,1015.76
2018-10-03T10:45:26.154Z,1015.79
2018-10-03T10:46:26.158Z,1015.72
2018-10-03T10:47:26.138Z,1015.71
2018-10-03T10:48:26.132Z,1015.74
2018-10-03T10:49:26.113Z,1015.78
2018-10-03T10:50:26.179Z,1015.76
2018-10-03T10:51:26.086Z,1015.77
2018-10-03T10:52:26.080Z,1015.73
2018-10-03T10:53:26.102Z,1015.73
2018-10-03T10:54:26.052Z,1015.77
2018-10-03T10:55:26.072Z,1015.80
2018-10-03T10:56:26.065Z,1015.85
2018-10-03T10:57:26.019Z,1015.85
2018-10-03T10:58:26.019Z,1015.91
2018-10-03T10:59:26.007Z,1015.78
2018-10-03T11:00:25.987Z,1015.85
2018-10-03T11:01:25.974Z,1015.85
2018-10-03T11:02:25.964Z,1015.76
2018-10-03T11:03:25.963Z,1015.79
2018-10-03T11:04:25.948Z,1015.69
2018-10-03T11:05:25.929Z,1015.74
2018-10-03T11:06:25.993Z,1015.85
2018-10-03T11:07:25.909Z,1015.85
2018-10-03T11:08:25.906Z,1015.88
2018-10-03T11:09:25.904Z,1015.84
2018-10-03T11:10:25.873Z,1015.86
2018-10-03T11:11:25.862Z,1015.88
2018-10-03T11:12:25.851Z,1015.84
2018-10-03T11:13:25.855Z,1015.95
2018-10-03T11:14:25.830Z,1015.88
2018-10-03T11:15:25.834Z,1015.90
2018-10-03T11:16:25.807Z,1015.91
2018-10-03T11:17:25.795Z,1015.87
2018-10-03T11:18:25.823Z,1015.96
2018-10-03T11:19:25.794Z,1015.98
2018-10-03T11:20:25.760Z,1015.93
2018-10-03T11:21:25.748Z,1015.98
2018-10-03T11:22:25.739Z,1015.95
2018-10-03T11:23:25.778Z,1015.95
2018-10-03T11:24:25.836Z,1015.99
2018-10-03T11:25:25.706Z,1015.98
2018-10-03T11:26:25.693Z,1016.00
2018-10-03T11:27:25.683Z,1016.01
2018-10-03T11:28:25.685Z,1016.05
2018-10-03T11:29:25.665Z,1016.01
2018-10-03T11:30:25.806Z,1016.05
2018-10-03T11:31:25.693Z,1016.04
2018-10-03T11:32:25.654Z,1016.06
2018-10-03T11:33:25.643Z,1016.05
2018-10-03T11:34:25.610Z,1015.94
2018-10-03T11:35:25.611Z,1016.05
2018-10-03T11:36:25.584Z,1016.03
2018-10-03T11:37:25.586Z,1016.07
2018-10-03T11:38:25.721Z,1016.10
2018-10-03T11:39:25.550Z,1016.10
2018-10-03T11:40:25.534Z,1016.12
2018-10-03T11:41:25.525Z,1016.10
2018-10-03T11:42:25.535Z,1016.11
2018-10-03T11:43:25.571Z,1016.14
2018-10-03T11:44:25.490Z,1016.14
2018-10-03T11:45:25.505Z,1016.03
2018-10-03T11:46:25.472Z,1016.03
2018-10-03T11:47:25.457Z,1016.03
2018-10-03T11:48:25.478Z,1016.13
2018-10-03T11:49:25.443Z,1016.02
2018-10-03T11:50:25.455Z,1015.99
2018-10-03T11:51:25.441Z,1016.01
2018-10-03T11:52:25.559Z,1016.03
2018-10-03T11:53:25.396Z,1016.01
2018-10-03T11:54:25.390Z,1016.09
2018-10-03T11:55:25.452Z,1016.03
2018-10-03T11:56:25.360Z,1016.02
2018-10-03T11:57:25.346Z,1015.97
2018-10-03T11:58:25.333Z,1016.00
2018-10-03T11:59:25.397Z,1016.01
2018-10-03T12:00:25.317Z,1015.99
2018-10-03T12:01:25.300Z,1015.96
2018-10-03T12:02:25.288Z,1015.97
2018-10-03T12:03:25.383Z,1016.00
2018-10-03T12:04:25.327Z,1015.95
2018-10-03T12:05:25.255Z,1015.98
2018-10-03T12:06:25.277Z,1015.98